sensor_id;sensor_type;location;lat;lon;timestamp;temperature;humidity
10417;DHT22;62605;49.432;8.680;2023-11-21T00:00:33;9.60;1.00
10417;DHT22;62605;49.432;8.680;2023-11-21T00:03:21;9.60;1.00
10417;DHT22;62605;49.432;8.680;2023-11-21T00:06:11;9.60;1.00
10417;DHT22;62605;49.432;8.680;2023-11-21T00:08:49;9.60;1.00
10417;DHT22;62605;49.432;8.680;2023-11-21T00:11:19;9.50;1.00
10417;DHT22;62605;49.432;8.680;2023-11-21T00:14:08;9.50;2.50
10417;DHT22;62605;49.432;8.680;2023-11-21T00:16:37;9.50;1.00
10417;DHT22;62605;49.432;8.680;2023-11-21T00:19:09;9.60;99.90
10417;DHT22;62605;49.432;8.680;2023-11-21T00:21:43;9.60;99.90
10417;DHT22;62605;49.432;8.680;2023-11-21T00:24:18;9.60;99.90
10417;DHT22;62605;49.432;8.680;2023-11-21T00:26:47;9.60;99.90
10417;DHT22;62605;49.432;8.680;2023-11-21T00:29:17;9.60;99.90
10417;DHT22;62605;49.432;8.680;2023-11-21T00:31:47;9.60;99.90
10417;DHT22;62605;49.432;8.680;2023-11-21T00:34:15;9.60;53.00
10417;DHT22;62605;49.432;8.680;2023-11-21T00:36:43;9.60;18.50
10417;DHT22;62605;49.432;8.680;2023-11-21T00:39:10;9.60;99.90
10417;DHT22;62605;49.432;8.680;2023-11-21T00:41:41;9.60;1.00
10417;DHT22;62605;49.432;8.680;2023-11-21T00:44:12;9.60;99.90
10417;DHT22;62605;49.432;8.680;2023-11-21T00:46:42;9.60;99.90
10417;DHT22;62605;49.432;8.680;2023-11-21T00:49:12;9.60;94.50
10417;DHT22;62605;49.432;8.680;2023-11-21T00:51:45;9.60;99.90
10417;DHT22;62605;49.432;8.680;2023-11-21T00:54:14;9.60;32.20
10417;DHT22;62605;49.432;8.680;2023-11-21T00:56:43;9.60;1.00
10417;DHT22;62605;49.432;8.680;2023-11-21T00:59:14;9.60;1.00
10417;DHT22;62605;49.432;8.680;2023-11-21T01:01:46;9.70;1.00
10417;DHT22;62605;49.432;8.680;2023-11-21T01:04:20;9.60;1.00
10417;DHT22;62605;49.432;8.680;2023-11-21T01:06:54;9.70;1.00
10417;DHT22;62605;49.432;8.680;2023-11-21T01:09:27;9.70;1.00
10417;DHT22;62605;49.432;8.680;2023-11-21T01:11:58;9.70;40.70
10417;DHT22;62605;49.432;8.680;2023-11-21T01:14:28;9.70;1.00
10417;DHT22;62605;49.432;8.680;2023-11-21T01:16:57;9.70;1.00
10417;DHT22;62605;49.432;8.680;2023-11-21T01:19:25;9.70;1.00
10417;DHT22;62605;49.432;8.680;2023-11-21T01:21:53;9.70;1.00
10417;DHT22;62605;49.432;8.680;2023-11-21T01:24:20;9.70;61.90
10417;DHT22;62605;49.432;8.680;2023-11-21T01:26:50;9.70;1.00
10417;DHT22;62605;49.432;8.680;2023-11-21T01:29:20;9.80;1.00
10417;DHT22;62605;49.432;8.680;2023-11-21T01:31:51;9.70;1.00
10417;DHT22;62605;49.432;8.680;2023-11-21T01:34:19;9.80;1.00
10417;DHT22;62605;49.432;8.680;2023-11-21T01:36:56;9.80;1.00
10417;DHT22;62605;49.432;8.680;2023-11-21T01:39:27;9.70;1.00
10417;DHT22;62605;49.432;8.680;2023-11-21T01:41:55;9.80;70.20
10417;DHT22;62605;49.432;8.680;2023-11-21T01:44:24;9.80;99.90
10417;DHT22;62605;49.432;8.680;2023-11-21T01:46:53;9.80;99.90
10417;DHT22;62605;49.432;8.680;2023-11-21T01:49:23;9.80;1.00
10417;DHT22;62605;49.432;8.680;2023-11-21T01:51:51;9.80;53.40
10417;DHT22;62605;49.432;8.680;2023-11-21T01:54:21;9.80;99.90
10417;DHT22;62605;49.432;8.680;2023-11-21T01:56:49;9.90;99.90
10417;DHT22;62605;49.432;8.680;2023-11-21T01:59:19;9.80;1.00
10417;DHT22;62605;49.432;8.680;2023-11-21T02:01:47;9.80;1.00
10417;DHT22;62605;49.432;8.680;2023-11-21T02:04:18;9.80;1.00
10417;DHT22;62605;49.432;8.680;2023-11-21T02:06:49;9.80;1.00
10417;DHT22;62605;49.432;8.680;2023-11-21T02:09:30;9.80;1.00
10417;DHT22;62605;49.432;8.680;2023-11-21T02:12:04;9.80;1.00
10417;DHT22;62605;49.432;8.680;2023-11-21T02:14:41;9.80;1.00
10417;DHT22;62605;49.432;8.680;2023-11-21T02:17:10;9.80;1.00
10417;DHT22;62605;49.432;8.680;2023-11-21T02:19:41;9.80;1.00
10417;DHT22;62605;49.432;8.680;2023-11-21T02:22:12;9.80;1.00
10417;DHT22;62605;49.432;8.680;2023-11-21T02:24:57;9.80;1.00
10417;DHT22;62605;49.432;8.680;2023-11-21T02:27:57;9.80;1.00
10417;DHT22;62605;49.432;8.680;2023-11-21T02:30:28;9.80;1.00
10417;DHT22;62605;49.432;8.680;2023-11-21T02:33:11;9.90;37.00
10417;DHT22;62605;49.432;8.680;2023-11-21T02:35:43;9.80;1.00
10417;DHT22;62605;49.432;8.680;2023-11-21T02:41:39;9.80;1.00
10417;DHT22;62605;49.432;8.680;2023-11-21T02:44:07;9.90;1.00
10417;DHT22;62605;49.432;8.680;2023-11-21T02:47:40;9.90;1.00
10417;DHT22;62605;49.432;8.680;2023-11-21T02:53:50;9.80;1.00
10417;DHT22;62605;49.432;8.680;2023-11-21T02:56:28;9.80;1.00
10417;DHT22;62605;49.432;8.680;2023-11-21T02:58:57;9.80;99.90
10417;DHT22;62605;49.432;8.680;2023-11-21T03:01:27;9.80;99.90
10417;DHT22;62605;49.432;8.680;2023-11-21T03:03:54;9.80;99.90
10417;DHT22;62605;49.432;8.680;2023-11-21T03:06:22;9.80;8.60
10417;DHT22;62605;49.432;8.680;2023-11-21T03:08:52;9.80;99.90
10417;DHT22;62605;49.432;8.680;2023-11-21T03:11:20;9.80;99.90
10417;DHT22;62605;49.432;8.680;2023-11-21T03:13:47;9.80;99.90
10417;DHT22;62605;49.432;8.680;2023-11-21T03:16:17;9.80;1.00
10417;DHT22;62605;49.432;8.680;2023-11-21T03:18:45;9.80;1.00
10417;DHT22;62605;49.432;8.680;2023-11-21T03:21:12;9.80;1.00
10417;DHT22;62605;49.432;8.680;2023-11-21T03:23:39;9.80;1.00
10417;DHT22;62605;49.432;8.680;2023-11-21T03:26:06;9.80;1.00
10417;DHT22;62605;49.432;8.680;2023-11-21T03:28:38;9.80;99.90
10417;DHT22;62605;49.432;8.680;2023-11-21T03:31:06;9.80;99.90
10417;DHT22;62605;49.432;8.680;2023-11-21T03:33:36;9.90;99.90
10417;DHT22;62605;49.432;8.680;2023-11-21T03:36:04;9.90;1.00
10417;DHT22;62605;49.432;8.680;2023-11-21T03:38:32;9.80;1.00
10417;DHT22;62605;49.432;8.680;2023-11-21T03:40:59;9.80;1.00
10417;DHT22;62605;49.432;8.680;2023-11-21T03:43:27;9.80;99.90
10417;DHT22;62605;49.432;8.680;2023-11-21T03:45:54;9.70;99.90
10417;DHT22;62605;49.432;8.680;2023-11-21T03:48:21;9.80;1.00
10417;DHT22;62605;49.432;8.680;2023-11-21T03:50:52;9.80;1.00
10417;DHT22;62605;49.432;8.680;2023-11-21T03:53:19;9.70;1.00
10417;DHT22;62605;49.432;8.680;2023-11-21T03:55:47;9.80;1.00
10417;DHT22;62605;49.432;8.680;2023-11-21T03:58:15;9.80;1.00
10417;DHT22;62605;49.432;8.680;2023-11-21T04:00:42;9.80;99.90
10417;DHT22;62605;49.432;8.680;2023-11-21T04:03:09;9.80;99.90
10417;DHT22;62605;49.432;8.680;2023-11-21T04:05:37;9.80;1.00
10417;DHT22;62605;49.432;8.680;2023-11-21T04:08:05;9.80;99.90
10417;DHT22;62605;49.432;8.680;2023-11-21T04:10:33;9.80;1.00
10417;DHT22;62605;49.432;8.680;2023-11-21T04:13:00;9.80;1.00
10417;DHT22;62605;49.432;8.680;2023-11-21T04:15:31;9.80;1.00
10417;DHT22;62605;49.432;8.680;2023-11-21T04:17:58;9.80;1.00
10417;DHT22;62605;49.432;8.680;2023-11-21T04:20:25;9.80;1.00
10417;DHT22;62605;49.432;8.680;2023-11-21T04:22:53;9.80;99.90
10417;DHT22;62605;49.432;8.680;2023-11-21T04:25:21;9.80;99.90
10417;DHT22;62605;49.432;8.680;2023-11-21T04:27:50;9.80;1.00
10417;DHT22;62605;49.432;8.680;2023-11-21T04:30:17;9.80;11.70
10417;DHT22;62605;49.432;8.680;2023-11-21T04:32:45;9.80;99.90
10417;DHT22;62605;49.432;8.680;2023-11-21T04:35:12;9.80;17.70
10417;DHT22;62605;49.432;8.680;2023-11-21T04:37:39;9.80;1.00
10417;DHT22;62605;49.432;8.680;2023-11-21T04:40:07;9.80;99.90
10417;DHT22;62605;49.432;8.680;2023-11-21T04:42:36;9.80;1.00
10417;DHT22;62605;49.432;8.680;2023-11-21T04:45:05;9.80;1.00
10417;DHT22;62605;49.432;8.680;2023-11-21T04:47:35;9.80;1.00
10417;DHT22;62605;49.432;8.680;2023-11-21T04:50:03;9.80;1.00
10417;DHT22;62605;49.432;8.680;2023-11-21T04:52:30;9.80;1.00
10417;DHT22;62605;49.432;8.680;2023-11-21T04:54:58;9.80;1.00
10417;DHT22;62605;49.432;8.680;2023-11-21T04:57:27;9.80;1.00
10417;DHT22;62605;49.432;8.680;2023-11-21T04:59:56;9.80;99.90
10417;DHT22;62605;49.432;8.680;2023-11-21T05:02:24;9.90;99.90
10417;DHT22;62605;49.432;8.680;2023-11-21T05:04:51;9.80;1.00
10417;DHT22;62605;49.432;8.680;2023-11-21T05:07:19;9.80;1.00
10417;DHT22;62605;49.432;8.680;2023-11-21T05:09:46;9.80;1.80
10417;DHT22;62605;49.432;8.680;2023-11-21T05:12:13;9.80;99.90
10417;DHT22;62605;49.432;8.680;2023-11-21T05:14:41;9.80;99.90
10417;DHT22;62605;49.432;8.680;2023-11-21T05:17:10;9.90;1.00
10417;DHT22;62605;49.432;8.680;2023-11-21T05:19:37;9.80;22.80
10417;DHT22;62605;49.432;8.680;2023-11-21T05:22:06;9.80;99.90
10417;DHT22;62605;49.432;8.680;2023-11-21T05:24:34;9.80;99.90
10417;DHT22;62605;49.432;8.680;2023-11-21T05:27:01;9.80;1.00
10417;DHT22;62605;49.432;8.680;2023-11-21T05:29:30;9.80;1.00
10417;DHT22;62605;49.432;8.680;2023-11-21T05:31:57;9.80;1.00
10417;DHT22;62605;49.432;8.680;2023-11-21T05:34:26;9.80;99.90
10417;DHT22;62605;49.432;8.680;2023-11-21T05:36:53;9.80;21.70
10417;DHT22;62605;49.432;8.680;2023-11-21T05:39:20;9.80;1.00
10417;DHT22;62605;49.432;8.680;2023-11-21T05:41:48;9.80;1.00
10417;DHT22;62605;49.432;8.680;2023-11-21T05:44:15;9.80;1.00
10417;DHT22;62605;49.432;8.680;2023-11-21T05:46:43;9.80;99.90
10417;DHT22;62605;49.432;8.680;2023-11-21T05:49:11;9.80;1.00
10417;DHT22;62605;49.432;8.680;2023-11-21T05:51:40;9.80;99.90
10417;DHT22;62605;49.432;8.680;2023-11-21T05:54:07;9.80;1.00
10417;DHT22;62605;49.432;8.680;2023-11-21T05:56:36;9.80;99.90
10417;DHT22;62605;49.432;8.680;2023-11-21T05:59:04;9.90;1.00
10417;DHT22;62605;49.432;8.680;2023-11-21T06:01:32;9.80;1.00
10417;DHT22;62605;49.432;8.680;2023-11-21T06:04:00;9.70;1.00
10417;DHT22;62605;49.432;8.680;2023-11-21T06:06:29;9.70;1.00
10417;DHT22;62605;49.432;8.680;2023-11-21T06:08:58;9.80;99.90
10417;DHT22;62605;49.432;8.680;2023-11-21T06:11:26;9.80;1.00
10417;DHT22;62605;49.432;8.680;2023-11-21T06:14:08;9.80;99.90
10417;DHT22;62605;49.432;8.680;2023-11-21T06:16:36;9.80;1.00
10417;DHT22;62605;49.432;8.680;2023-11-21T06:19:04;9.80;21.00
10417;DHT22;62605;49.432;8.680;2023-11-21T06:21:31;9.80;1.00
10417;DHT22;62605;49.432;8.680;2023-11-21T06:24:02;9.80;99.90
10417;DHT22;62605;49.432;8.680;2023-11-21T06:26:29;9.90;1.00
10417;DHT22;62605;49.432;8.680;2023-11-21T06:28:58;9.80;1.00
10417;DHT22;62605;49.432;8.680;2023-11-21T06:31:24;9.90;1.00
10417;DHT22;62605;49.432;8.680;2023-11-21T06:33:52;9.90;99.90
10417;DHT22;62605;49.432;8.680;2023-11-21T06:36:20;9.90;1.00
10417;DHT22;62605;49.432;8.680;2023-11-21T06:38:47;9.80;1.00
10417;DHT22;62605;49.432;8.680;2023-11-21T06:41:16;9.80;1.00
10417;DHT22;62605;49.432;8.680;2023-11-21T06:43:47;9.80;1.00
10417;DHT22;62605;49.432;8.680;2023-11-21T06:46:15;9.80;1.00
10417;DHT22;62605;49.432;8.680;2023-11-21T06:48:50;9.80;1.00
10417;DHT22;62605;49.432;8.680;2023-11-21T06:51:18;9.80;1.00
10417;DHT22;62605;49.432;8.680;2023-11-21T06:53:45;9.80;1.00
10417;DHT22;62605;49.432;8.680;2023-11-21T06:56:18;9.80;1.00
10417;DHT22;62605;49.432;8.680;2023-11-21T06:58:46;9.80;1.00
10417;DHT22;62605;49.432;8.680;2023-11-21T07:01:14;9.80;1.00
10417;DHT22;62605;49.432;8.680;2023-11-21T07:03:41;9.80;99.90
10417;DHT22;62605;49.432;8.680;2023-11-21T07:06:09;9.90;1.00
10417;DHT22;62605;49.432;8.680;2023-11-21T07:08:38;9.90;1.00
10417;DHT22;62605;49.432;8.680;2023-11-21T07:11:05;9.90;99.90
10417;DHT22;62605;49.432;8.680;2023-11-21T07:13:35;9.90;99.90
10417;DHT22;62605;49.432;8.680;2023-11-21T07:16:02;9.90;99.90
10417;DHT22;62605;49.432;8.680;2023-11-21T07:18:30;9.90;1.00
10417;DHT22;62605;49.432;8.680;2023-11-21T07:20:58;9.80;99.90
10417;DHT22;62605;49.432;8.680;2023-11-21T07:23:26;9.90;99.90
10417;DHT22;62605;49.432;8.680;2023-11-21T07:25:54;9.90;99.90
10417;DHT22;62605;49.432;8.680;2023-11-21T07:28:22;9.90;99.90
10417;DHT22;62605;49.432;8.680;2023-11-21T07:30:50;9.90;1.00
10417;DHT22;62605;49.432;8.680;2023-11-21T07:33:18;9.90;1.00
10417;DHT22;62605;49.432;8.680;2023-11-21T07:35:47;9.90;1.00
10417;DHT22;62605;49.432;8.680;2023-11-21T07:38:15;9.90;99.90
10417;DHT22;62605;49.432;8.680;2023-11-21T07:40:43;9.90;1.00
10417;DHT22;62605;49.432;8.680;2023-11-21T07:43:15;9.90;1.00
10417;DHT22;62605;49.432;8.680;2023-11-21T07:45:47;9.90;99.90
10417;DHT22;62605;49.432;8.680;2023-11-21T07:48:16;9.90;99.90
10417;DHT22;62605;49.432;8.680;2023-11-21T07:50:43;9.90;99.90
10417;DHT22;62605;49.432;8.680;2023-11-21T07:53:12;9.90;1.00
10417;DHT22;62605;49.432;8.680;2023-11-21T07:55:40;9.90;1.00
10417;DHT22;62605;49.432;8.680;2023-11-21T07:58:08;9.90;99.90
10417;DHT22;62605;49.432;8.680;2023-11-21T08:00:38;10.00;99.90
10417;DHT22;62605;49.432;8.680;2023-11-21T08:03:06;10.00;1.00
10417;DHT22;62605;49.432;8.680;2023-11-21T08:05:37;10.00;99.90
10417;DHT22;62605;49.432;8.680;2023-11-21T08:08:05;10.10;99.90
10417;DHT22;62605;49.432;8.680;2023-11-21T08:10:32;10.20;99.90
10417;DHT22;62605;49.432;8.680;2023-11-21T08:12:59;10.10;99.90
10417;DHT22;62605;49.432;8.680;2023-11-21T08:15:27;10.20;1.00
10417;DHT22;62605;49.432;8.680;2023-11-21T08:17:54;10.10;1.00
10417;DHT22;62605;49.432;8.680;2023-11-21T08:20:27;10.20;1.00
10417;DHT22;62605;49.432;8.680;2023-11-21T08:22:57;10.20;1.00
10417;DHT22;62605;49.432;8.680;2023-11-21T08:25:31;10.40;1.00
10417;DHT22;62605;49.432;8.680;2023-11-21T08:27:59;10.50;99.90
10417;DHT22;62605;49.432;8.680;2023-11-21T08:30:27;10.40;35.00
10417;DHT22;62605;49.432;8.680;2023-11-21T08:32:55;10.40;99.90
10417;DHT22;62605;49.432;8.680;2023-11-21T08:35:23;10.30;99.90
10417;DHT22;62605;49.432;8.680;2023-11-21T08:37:51;10.50;99.90
10417;DHT22;62605;49.432;8.680;2023-11-21T08:40:21;10.60;99.90
10417;DHT22;62605;49.432;8.680;2023-11-21T08:42:49;10.50;42.90
10417;DHT22;62605;49.432;8.680;2023-11-21T08:45:18;10.40;99.90
10417;DHT22;62605;49.432;8.680;2023-11-21T08:47:53;10.50;99.90
10417;DHT22;62605;49.432;8.680;2023-11-21T08:50:21;10.50;99.90
10417;DHT22;62605;49.432;8.680;2023-11-21T08:52:49;10.60;99.90
10417;DHT22;62605;49.432;8.680;2023-11-21T08:55:17;10.50;49.50
10417;DHT22;62605;49.432;8.680;2023-11-21T08:57:47;10.60;92.20
10417;DHT22;62605;49.432;8.680;2023-11-21T09:00:15;10.60;1.00
10417;DHT22;62605;49.432;8.680;2023-11-21T09:02:43;10.60;1.00
10417;DHT22;62605;49.432;8.680;2023-11-21T09:05:12;10.70;1.00
10417;DHT22;62605;49.432;8.680;2023-11-21T09:07:40;10.60;1.00
10417;DHT22;62605;49.432;8.680;2023-11-21T09:10:09;10.60;1.00
10417;DHT22;62605;49.432;8.680;2023-11-21T09:12:37;10.70;1.00
10417;DHT22;62605;49.432;8.680;2023-11-21T09:15:07;10.60;1.00
10417;DHT22;62605;49.432;8.680;2023-11-21T09:17:35;10.60;1.00
10417;DHT22;62605;49.432;8.680;2023-11-21T09:20:04;10.60;1.00
10417;DHT22;62605;49.432;8.680;2023-11-21T09:22:32;10.60;99.90
10417;DHT22;62605;49.432;8.680;2023-11-21T09:24:59;10.60;99.90
10417;DHT22;62605;49.432;8.680;2023-11-21T09:27:26;10.70;99.90
10417;DHT22;62605;49.432;8.680;2023-11-21T09:29:54;10.60;97.50
10417;DHT22;62605;49.432;8.680;2023-11-21T09:32:23;10.50;99.90
10417;DHT22;62605;49.432;8.680;2023-11-21T09:34:50;10.50;99.90
10417;DHT22;62605;49.432;8.680;2023-11-21T09:37:18;10.60;99.90
10417;DHT22;62605;49.432;8.680;2023-11-21T09:39:46;10.60;1.00
10417;DHT22;62605;49.432;8.680;2023-11-21T09:42:19;10.60;1.00
10417;DHT22;62605;49.432;8.680;2023-11-21T09:45:03;10.50;1.00
10417;DHT22;62605;49.432;8.680;2023-11-21T09:47:36;10.50;16.80
10417;DHT22;62605;49.432;8.680;2023-11-21T09:50:06;10.50;99.90
10417;DHT22;62605;49.432;8.680;2023-11-21T09:52:46;10.40;99.90
10417;DHT22;62605;49.432;8.680;2023-11-21T09:55:16;10.40;99.90
10417;DHT22;62605;49.432;8.680;2023-11-21T09:57:46;10.30;1.00
10417;DHT22;62605;49.432;8.680;2023-11-21T10:00:15;10.30;4.70
10417;DHT22;62605;49.432;8.680;2023-11-21T10:02:45;10.30;93.70
10417;DHT22;62605;49.432;8.680;2023-11-21T10:05:13;10.30;1.00
10417;DHT22;62605;49.432;8.680;2023-11-21T10:07:43;10.50;62.60
10417;DHT22;62605;49.432;8.680;2023-11-21T10:10:11;10.50;1.00
10417;DHT22;62605;49.432;8.680;2023-11-21T10:12:40;10.50;1.00
10417;DHT22;62605;49.432;8.680;2023-11-21T10:15:11;10.60;1.00
10417;DHT22;62605;49.432;8.680;2023-11-21T10:17:46;10.70;1.00
10417;DHT22;62605;49.432;8.680;2023-11-21T10:20:14;10.80;1.00
10417;DHT22;62605;49.432;8.680;2023-11-21T10:22:43;10.70;1.00
10417;DHT22;62605;49.432;8.680;2023-11-21T10:25:10;10.80;1.00
10417;DHT22;62605;49.432;8.680;2023-11-21T10:27:41;10.90;1.00
10417;DHT22;62605;49.432;8.680;2023-11-21T10:30:10;10.80;99.90
10417;DHT22;62605;49.432;8.680;2023-11-21T10:32:38;10.80;99.90
10417;DHT22;62605;49.432;8.680;2023-11-21T10:35:08;10.70;99.90
10417;DHT22;62605;49.432;8.680;2023-11-21T10:37:37;10.80;99.90
10417;DHT22;62605;49.432;8.680;2023-11-21T10:40:06;10.80;99.90
10417;DHT22;62605;49.432;8.680;2023-11-21T10:42:38;10.80;99.90
10417;DHT22;62605;49.432;8.680;2023-11-21T10:45:06;10.80;99.90
10417;DHT22;62605;49.432;8.680;2023-11-21T10:47:39;10.70;99.90
10417;DHT22;62605;49.432;8.680;2023-11-21T10:50:09;10.70;99.90
10417;DHT22;62605;49.432;8.680;2023-11-21T10:52:37;10.80;99.90
10417;DHT22;62605;49.432;8.680;2023-11-21T10:55:16;10.90;88.90
10417;DHT22;62605;49.432;8.680;2023-11-21T10:57:46;10.90;99.90
10417;DHT22;62605;49.432;8.680;2023-11-21T11:00:16;10.90;70.10
10417;DHT22;62605;49.432;8.680;2023-11-21T11:02:47;10.80;99.90
10417;DHT22;62605;49.432;8.680;2023-11-21T11:05:19;10.90;1.00
10417;DHT22;62605;49.432;8.680;2023-11-21T11:07:48;10.90;15.40
10417;DHT22;62605;49.432;8.680;2023-11-21T11:10:20;10.80;28.70
10417;DHT22;62605;49.432;8.680;2023-11-21T11:12:48;10.70;99.90
10417;DHT22;62605;49.432;8.680;2023-11-21T11:15:19;10.60;95.20
10417;DHT22;62605;49.432;8.680;2023-11-21T11:17:46;10.60;96.70
10417;DHT22;62605;49.432;8.680;2023-11-21T11:20:17;10.60;99.90
10417;DHT22;62605;49.432;8.680;2023-11-21T11:22:54;10.70;99.90
10417;DHT22;62605;49.432;8.680;2023-11-21T11:25:43;10.70;99.90
10417;DHT22;62605;49.432;8.680;2023-11-21T11:28:17;10.70;99.90
10417;DHT22;62605;49.432;8.680;2023-11-21T11:30:56;10.70;99.90
10417;DHT22;62605;49.432;8.680;2023-11-21T11:33:33;10.60;99.90
10417;DHT22;62605;49.432;8.680;2023-11-21T11:36:08;10.50;99.90
10417;DHT22;62605;49.432;8.680;2023-11-21T11:38:38;10.50;99.90
10417;DHT22;62605;49.432;8.680;2023-11-21T11:41:08;10.60;99.90
10417;DHT22;62605;49.432;8.680;2023-11-21T11:43:35;10.60;99.90
10417;DHT22;62605;49.432;8.680;2023-11-21T11:46:11;10.60;99.90
10417;DHT22;62605;49.432;8.680;2023-11-21T11:48:40;10.70;99.90
10417;DHT22;62605;49.432;8.680;2023-11-21T11:51:12;10.80;99.90
10417;DHT22;62605;49.432;8.680;2023-11-21T11:53:41;10.90;99.90
10417;DHT22;62605;49.432;8.680;2023-11-21T11:56:26;10.90;18.40
10417;DHT22;62605;49.432;8.680;2023-11-21T11:58:54;11.00;1.00
10417;DHT22;62605;49.432;8.680;2023-11-21T12:01:23;10.90;1.00
10417;DHT22;62605;49.432;8.680;2023-11-21T12:04:25;10.90;1.00
10417;DHT22;62605;49.432;8.680;2023-11-21T12:07:04;11.20;1.00
10417;DHT22;62605;49.432;8.680;2023-11-21T12:09:33;11.30;1.00
10417;DHT22;62605;49.432;8.680;2023-11-21T12:12:02;11.50;1.00
10417;DHT22;62605;49.432;8.680;2023-11-21T12:14:31;11.70;1.00
10417;DHT22;62605;49.432;8.680;2023-11-21T12:16:58;11.80;1.00
10417;DHT22;62605;49.432;8.680;2023-11-21T12:19:26;11.60;1.00
10417;DHT22;62605;49.432;8.680;2023-11-21T12:21:53;11.60;1.00
10417;DHT22;62605;49.432;8.680;2023-11-21T12:24:23;11.60;1.00
10417;DHT22;62605;49.432;8.680;2023-11-21T12:26:50;11.40;1.00
10417;DHT22;62605;49.432;8.680;2023-11-21T12:29:17;11.50;1.00
10417;DHT22;62605;49.432;8.680;2023-11-21T12:31:45;11.60;1.00
10417;DHT22;62605;49.432;8.680;2023-11-21T12:34:12;11.50;1.00
10417;DHT22;62605;49.432;8.680;2023-11-21T12:36:40;11.50;1.00
10417;DHT22;62605;49.432;8.680;2023-11-21T12:39:07;11.40;1.00
10417;DHT22;62605;49.432;8.680;2023-11-21T12:41:38;11.60;1.00
10417;DHT22;62605;49.432;8.680;2023-11-21T12:44:11;11.70;1.00
10417;DHT22;62605;49.432;8.680;2023-11-21T12:46:42;11.60;1.00
10417;DHT22;62605;49.432;8.680;2023-11-21T12:49:11;11.70;1.00
10417;DHT22;62605;49.432;8.680;2023-11-21T12:51:43;11.70;1.00
10417;DHT22;62605;49.432;8.680;2023-11-21T12:54:11;11.70;1.00
10417;DHT22;62605;49.432;8.680;2023-11-21T12:56:40;11.70;1.00
10417;DHT22;62605;49.432;8.680;2023-11-21T12:59:07;11.70;1.00
10417;DHT22;62605;49.432;8.680;2023-11-21T13:01:41;11.80;1.00
10417;DHT22;62605;49.432;8.680;2023-11-21T13:04:08;11.80;1.00
10417;DHT22;62605;49.432;8.680;2023-11-21T13:06:37;11.80;1.00
10417;DHT22;62605;49.432;8.680;2023-11-21T13:09:07;11.70;1.00
10417;DHT22;62605;49.432;8.680;2023-11-21T13:11:36;11.70;1.00
10417;DHT22;62605;49.432;8.680;2023-11-21T13:14:07;11.70;1.00
10417;DHT22;62605;49.432;8.680;2023-11-21T13:16:36;11.80;1.00
10417;DHT22;62605;49.432;8.680;2023-11-21T13:19:04;11.90;1.00
10417;DHT22;62605;49.432;8.680;2023-11-21T13:21:32;12.20;1.00
10417;DHT22;62605;49.432;8.680;2023-11-21T13:23:59;12.20;1.00
10417;DHT22;62605;49.432;8.680;2023-11-21T13:26:26;12.00;99.90
10417;DHT22;62605;49.432;8.680;2023-11-21T13:28:53;12.10;99.90
10417;DHT22;62605;49.432;8.680;2023-11-21T13:31:26;12.20;99.90
10417;DHT22;62605;49.432;8.680;2023-11-21T13:33:56;12.20;99.90
10417;DHT22;62605;49.432;8.680;2023-11-21T13:36:31;12.20;99.90
10417;DHT22;62605;49.432;8.680;2023-11-21T13:38:59;12.10;99.90
10417;DHT22;62605;49.432;8.680;2023-11-21T13:41:36;12.20;99.90
10417;DHT22;62605;49.432;8.680;2023-11-21T13:44:04;12.30;99.90
10417;DHT22;62605;49.432;8.680;2023-11-21T13:46:43;12.30;99.90
10417;DHT22;62605;49.432;8.680;2023-11-21T13:49:11;12.10;99.90
10417;DHT22;62605;49.432;8.680;2023-11-21T13:51:39;12.00;99.90
10417;DHT22;62605;49.432;8.680;2023-11-21T13:54:10;12.00;99.90
10417;DHT22;62605;49.432;8.680;2023-11-21T13:56:37;12.00;99.90
10417;DHT22;62605;49.432;8.680;2023-11-21T13:59:05;11.90;99.90
10417;DHT22;62605;49.432;8.680;2023-11-21T14:01:45;11.90;99.90
10417;DHT22;62605;49.432;8.680;2023-11-21T14:04:21;12.00;99.90
10417;DHT22;62605;49.432;8.680;2023-11-21T14:07:01;12.00;99.90
10417;DHT22;62605;49.432;8.680;2023-11-21T14:09:48;11.90;99.90
10417;DHT22;62605;49.432;8.680;2023-11-21T14:12:16;11.80;99.90
10417;DHT22;62605;49.432;8.680;2023-11-21T14:14:43;11.80;99.90
10417;DHT22;62605;49.432;8.680;2023-11-21T14:17:12;11.70;99.90
10417;DHT22;62605;49.432;8.680;2023-11-21T14:19:40;11.70;99.90
10417;DHT22;62605;49.432;8.680;2023-11-21T14:22:09;11.70;99.90
10417;DHT22;62605;49.432;8.680;2023-11-21T14:24:36;11.60;99.90
10417;DHT22;62605;49.432;8.680;2023-11-21T14:27:09;11.60;99.90
10417;DHT22;62605;49.432;8.680;2023-11-21T14:29:36;11.50;99.90
10417;DHT22;62605;49.432;8.680;2023-11-21T14:32:09;11.50;99.90
10417;DHT22;62605;49.432;8.680;2023-11-21T14:34:38;11.50;99.90
10417;DHT22;62605;49.432;8.680;2023-11-21T14:37:06;11.50;99.90
10417;DHT22;62605;49.432;8.680;2023-11-21T14:39:34;11.50;99.90
10417;DHT22;62605;49.432;8.680;2023-11-21T14:42:06;11.40;99.90
10417;DHT22;62605;49.432;8.680;2023-11-21T14:44:33;11.40;99.90
10417;DHT22;62605;49.432;8.680;2023-11-21T14:47:04;11.40;99.90
10417;DHT22;62605;49.432;8.680;2023-11-21T14:49:41;11.30;99.90
10417;DHT22;62605;49.432;8.680;2023-11-21T14:52:18;11.40;99.90
10417;DHT22;62605;49.432;8.680;2023-11-21T14:54:58;11.40;99.90
10417;DHT22;62605;49.432;8.680;2023-11-21T14:57:46;11.30;99.90
10417;DHT22;62605;49.432;8.680;2023-11-21T15:00:17;11.20;99.90
10417;DHT22;62605;49.432;8.680;2023-11-21T15:03:36;11.20;99.90
10417;DHT22;62605;49.432;8.680;2023-11-21T15:06:23;11.10;99.90
10417;DHT22;62605;49.432;8.680;2023-11-21T15:08:56;11.20;99.90
10417;DHT22;62605;49.432;8.680;2023-11-21T15:11:40;11.10;99.90
10417;DHT22;62605;49.432;8.680;2023-11-21T15:14:08;11.00;99.90
10417;DHT22;62605;49.432;8.680;2023-11-21T15:16:35;11.00;99.90
10417;DHT22;62605;49.432;8.680;2023-11-21T15:19:05;11.00;99.90
10417;DHT22;62605;49.432;8.680;2023-11-21T15:21:35;10.90;99.90
10417;DHT22;62605;49.432;8.680;2023-11-21T15:24:03;10.90;99.90
10417;DHT22;62605;49.432;8.680;2023-11-21T15:26:32;10.90;99.90
10417;DHT22;62605;49.432;8.680;2023-11-21T15:28:59;10.80;99.90
10417;DHT22;62605;49.432;8.680;2023-11-21T15:31:26;10.80;99.90
10417;DHT22;62605;49.432;8.680;2023-11-21T15:33:53;10.70;99.90
10417;DHT22;62605;49.432;8.680;2023-11-21T15:36:25;10.80;99.90
10417;DHT22;62605;49.432;8.680;2023-11-21T15:38:54;10.70;99.90
10417;DHT22;62605;49.432;8.680;2023-11-21T15:41:21;10.70;99.90
10417;DHT22;62605;49.432;8.680;2023-11-21T15:43:48;10.60;99.90
10417;DHT22;62605;49.432;8.680;2023-11-21T15:46:16;10.50;99.90
10417;DHT22;62605;49.432;8.680;2023-11-21T15:48:45;10.50;99.90
10417;DHT22;62605;49.432;8.680;2023-11-21T15:51:16;10.50;99.90
10417;DHT22;62605;49.432;8.680;2023-11-21T15:53:44;10.40;99.90
10417;DHT22;62605;49.432;8.680;2023-11-21T15:56:13;10.40;99.90
10417;DHT22;62605;49.432;8.680;2023-11-21T15:58:40;10.50;99.90
10417;DHT22;62605;49.432;8.680;2023-11-21T16:01:08;10.40;99.90
10417;DHT22;62605;49.432;8.680;2023-11-21T16:03:38;10.40;99.90
10417;DHT22;62605;49.432;8.680;2023-11-21T16:06:06;10.30;99.90
10417;DHT22;62605;49.432;8.680;2023-11-21T16:08:37;10.30;99.90
10417;DHT22;62605;49.432;8.680;2023-11-21T16:11:05;10.30;99.90